createdAt,value
2023-05-17T00:00:31.716Z,5.70
2023-05-17T00:02:58.640Z,7.50
2023-05-17T00:05:25.374Z,5.60
2023-05-17T00:07:52.134Z,5.60
2023-05-17T00:10:18.930Z,5.50
2023-05-17T00:12:46.422Z,5.40
2023-05-17T00:15:14.855Z,5.40
2023-05-17T00:17:41.617Z,5.40
2023-05-17T00:20:08.595Z,5.40
2023-05-17T00:22:35.273Z,5.30
2023-05-17T00:25:01.918Z,5.40
2023-05-17T00:27:28.541Z,5.40
2023-05-17T00:29:55.223Z,5.50
2023-05-17T00:32:21.838Z,5.50
2023-05-17T00:34:48.561Z,5.40
2023-05-17T00:37:15.258Z,5.50
2023-05-17T00:39:42.058Z,7.20
2023-05-17T00:42:09.300Z,5.50
2023-05-17T00:44:36.060Z,5.50
2023-05-17T00:47:03.245Z,5.50
2023-05-17T00:49:30.088Z,5.50
2023-05-17T00:51:56.831Z,5.50
2023-05-17T00:54:23.819Z,5.60
2023-05-17T00:56:50.751Z,5.60
2023-05-17T00:59:17.492Z,5.60
2023-05-17T01:01:44.835Z,5.60
2023-05-17T01:04:11.967Z,5.60
2023-05-17T01:06:39.036Z,5.60
2023-05-17T01:09:05.842Z,5.40
2023-05-17T01:11:35.809Z,5.60
2023-05-17T01:14:08.584Z,5.50
2023-05-17T01:16:44.579Z,5.50
2023-05-17T01:19:27.662Z,5.40
2023-05-17T01:22:04.812Z,5.40
2023-05-17T01:24:50.566Z,5.40
2023-05-17T01:27:19.157Z,5.40
2023-05-17T01:29:46.605Z,5.40
2023-05-17T01:32:13.904Z,5.40
2023-05-17T01:34:41.678Z,5.40
2023-05-17T01:37:08.618Z,5.40
2023-05-17T01:39:35.307Z,5.40
2023-05-17T01:42:01.895Z,5.40
2023-05-17T01:44:45.871Z,5.40
2023-05-17T01:47:24.470Z,5.40
2023-05-17T01:49:54.169Z,5.30
2023-05-17T01:52:35.605Z,5.20
2023-05-17T01:55:05.089Z,5.10
2023-05-17T01:57:34.044Z,5.00
2023-05-17T02:00:02.227Z,5.00
2023-05-17T02:02:29.127Z,4.90
2023-05-17T02:04:56.034Z,4.80
2023-05-17T02:07:22.739Z,7.10
2023-05-17T02:09:49.424Z,4.70
2023-05-17T02:12:16.120Z,4.80
2023-05-17T02:14:42.912Z,4.70
2023-05-17T02:17:10.166Z,4.70
2023-05-17T02:19:37.058Z,7.20
2023-05-17T02:22:03.963Z,4.70
2023-05-17T02:24:30.701Z,4.60
2023-05-17T02:26:57.558Z,4.60
2023-05-17T02:29:24.366Z,4.60
2023-05-17T02:31:51.058Z,4.60
2023-05-17T02:34:17.691Z,4.80
2023-05-17T02:36:44.905Z,4.90
2023-05-17T02:39:11.529Z,5.00
2023-05-17T02:41:38.355Z,5.00
2023-05-17T02:44:05.665Z,5.00
2023-05-17T02:46:32.346Z,7.60
2023-05-17T02:48:59.333Z,6.10
2023-05-17T02:51:26.043Z,5.30
2023-05-17T02:53:52.778Z,5.40
2023-05-17T02:56:19.503Z,5.40
2023-05-17T02:58:46.286Z,7.90
2023-05-17T03:01:13.076Z,7.90
2023-05-17T03:03:40.281Z,5.40
2023-05-17T03:06:07.214Z,5.40
2023-05-17T03:08:34.031Z,5.30
2023-05-17T03:11:00.798Z,5.20
2023-05-17T03:13:27.507Z,5.20
2023-05-17T03:15:54.369Z,5.10
2023-05-17T03:18:21.149Z,5.00
2023-05-17T03:20:48.025Z,5.00
2023-05-17T03:23:14.796Z,5.00
2023-05-17T03:25:41.488Z,5.00
2023-05-17T03:28:08.304Z,5.10
2023-05-17T03:30:35.065Z,5.10
2023-05-17T03:33:02.021Z,5.10
2023-05-17T03:35:29.219Z,6.10
2023-05-17T03:37:56.046Z,5.00
2023-05-17T03:40:23.091Z,5.00
2023-05-17T03:42:49.905Z,4.90
2023-05-17T03:45:16.769Z,4.90
2023-05-17T03:47:43.581Z,4.80
2023-05-17T03:50:10.602Z,4.80
2023-05-17T03:52:37.340Z,4.80
2023-05-17T03:55:04.337Z,4.80
2023-05-17T03:57:31.339Z,4.70
2023-05-17T03:59:59.353Z,4.70
2023-05-17T04:02:26.120Z,4.60
2023-05-17T04:04:53.347Z,4.60
2023-05-17T04:07:20.206Z,4.60
2023-05-17T04:09:47.169Z,4.60
2023-05-17T04:12:13.864Z,4.70
2023-05-17T04:14:40.560Z,4.70
2023-05-17T04:17:07.452Z,4.90
2023-05-17T04:19:34.488Z,4.90
2023-05-17T04:22:01.441Z,4.90
2023-05-17T04:24:28.259Z,4.90
2023-05-17T04:26:54.981Z,5.00
2023-05-17T04:29:22.087Z,5.00
2023-05-17T04:31:49.918Z,6.80
2023-05-17T04:34:16.870Z,5.10
2023-05-17T04:36:43.638Z,5.20
2023-05-17T04:39:10.803Z,5.30
2023-05-17T04:41:37.831Z,5.30
2023-05-17T04:44:06.151Z,5.30
2023-05-17T04:46:33.117Z,5.20
2023-05-17T04:49:00.513Z,5.30
2023-05-17T04:51:27.730Z,5.30
2023-05-17T04:53:55.172Z,6.30
2023-05-17T04:56:22.948Z,7.70
2023-05-17T04:58:50.459Z,6.20
2023-05-17T05:01:19.083Z,5.50
2023-05-17T05:03:45.913Z,5.50
2023-05-17T05:06:12.860Z,6.40
2023-05-17T05:08:39.665Z,5.60
2023-05-17T05:11:06.495Z,5.60
2023-05-17T05:13:33.533Z,5.70
2023-05-17T05:16:00.153Z,5.80
2023-05-17T05:18:26.998Z,5.80
2023-05-17T05:20:53.753Z,6.00
2023-05-17T05:23:20.396Z,6.10
2023-05-17T05:25:47.452Z,6.10
2023-05-17T05:28:14.160Z,6.20
2023-05-17T05:30:41.114Z,6.20
2023-05-17T05:33:08.018Z,6.30
2023-05-17T05:35:34.769Z,6.40
2023-05-17T05:38:01.623Z,7.70
2023-05-17T05:40:28.747Z,6.50
2023-05-17T05:42:56.431Z,6.40
2023-05-17T05:45:23.396Z,6.50
2023-05-17T05:47:50.301Z,6.60
2023-05-17T05:50:17.073Z,7.70
2023-05-17T05:52:44.270Z,6.80
2023-05-17T05:55:11.218Z,6.80
2023-05-17T05:57:38.358Z,3.80
2023-05-17T06:00:05.606Z,7.10
2023-05-17T06:02:32.666Z,7.30
2023-05-17T06:04:59.392Z,10.10
2023-05-17T06:07:26.290Z,7.50
2023-05-17T06:09:53.026Z,7.90
2023-05-17T06:12:20.902Z,7.70
2023-05-17T06:14:47.733Z,7.70
2023-05-17T06:17:14.484Z,10.10
2023-05-17T06:19:41.473Z,7.70
2023-05-17T06:22:08.368Z,7.70
2023-05-17T06:24:35.066Z,7.80
2023-05-17T06:27:01.769Z,10.90
2023-05-17T06:29:28.493Z,7.60
2023-05-17T06:31:57.189Z,7.60
2023-05-17T06:34:24.013Z,7.50
2023-05-17T06:36:50.706Z,7.70
2023-05-17T06:39:17.703Z,7.50
2023-05-17T06:41:44.377Z,7.60
2023-05-17T06:44:11.053Z,9.20
2023-05-17T06:46:37.920Z,7.10
2023-05-17T06:49:04.793Z,7.60
2023-05-17T06:51:31.817Z,7.60
2023-05-17T06:53:58.690Z,7.70
2023-05-17T06:56:25.541Z,9.50
2023-05-17T06:58:52.603Z,7.70
2023-05-17T07:01:19.950Z,10.50
2023-05-17T07:03:46.806Z,7.90
2023-05-17T07:06:13.534Z,9.30
2023-05-17T07:08:40.896Z,8.00
2023-05-17T07:11:07.942Z,8.10
2023-05-17T07:13:34.710Z,8.30
2023-05-17T07:16:01.460Z,8.40
2023-05-17T07:18:28.248Z,8.40
2023-05-17T07:20:55.365Z,8.40
2023-05-17T07:23:22.049Z,8.60
2023-05-17T07:25:49.041Z,8.60
2023-05-17T07:28:15.764Z,8.70
2023-05-17T07:30:42.775Z,8.70
2023-05-17T07:33:09.589Z,8.70
2023-05-17T07:35:36.294Z,8.80
2023-05-17T07:38:03.023Z,10.60
2023-05-17T07:40:29.785Z,9.20
2023-05-17T07:42:56.770Z,9.10
2023-05-17T07:45:24.497Z,12.70
2023-05-17T07:47:51.360Z,9.40
2023-05-17T07:50:18.111Z,9.40
2023-05-17T07:52:44.818Z,9.40
2023-05-17T07:55:16.031Z,12.30
2023-05-17T07:57:44.168Z,11.10
2023-05-17T08:00:12.838Z,9.50
2023-05-17T08:02:40.328Z,9.60
2023-05-17T08:05:08.810Z,9.80
2023-05-17T08:07:35.728Z,9.70
2023-05-17T08:10:02.867Z,13.10
2023-05-17T08:12:29.894Z,12.10
2023-05-17T08:14:56.752Z,10.30
2023-05-17T08:17:23.804Z,12.40
2023-05-17T08:19:50.581Z,10.30
2023-05-17T08:22:17.693Z,10.20
2023-05-17T08:24:45.479Z,10.10
2023-05-17T08:27:12.520Z,10.20
2023-05-17T08:29:39.922Z,10.30
2023-05-17T08:32:07.475Z,10.40
2023-05-17T08:34:34.227Z,10.70
2023-05-17T08:37:01.182Z,13.00
2023-05-17T08:39:28.020Z,10.90
2023-05-17T08:41:59.674Z,10.80
2023-05-17T08:44:28.064Z,10.60
2023-05-17T08:46:56.418Z,11.80
2023-05-17T08:49:25.946Z,10.60
2023-05-17T08:51:53.995Z,13.90
2023-05-17T08:54:21.172Z,13.30
2023-05-17T08:56:54.825Z,13.20
2023-05-17T08:59:22.192Z,12.50
2023-05-17T09:01:49.884Z,11.10
2023-05-17T09:04:17.167Z,11.10
2023-05-17T09:06:44.837Z,10.90
2023-05-17T09:09:11.777Z,10.80
2023-05-17T09:11:38.875Z,10.70
2023-05-17T09:14:06.654Z,10.70
2023-05-17T09:16:37.633Z,14.00
2023-05-17T09:19:05.659Z,10.50
2023-05-17T09:21:33.385Z,10.80
2023-05-17T09:26:40.497Z,10.90
2023-05-17T09:29:08.875Z,10.90
2023-05-17T09:31:35.588Z,10.90
2023-05-17T09:34:02.552Z,12.50
2023-05-17T09:36:29.261Z,12.50
2023-05-17T09:38:56.821Z,11.30
2023-05-17T09:41:26.730Z,12.80
2023-05-17T09:43:53.802Z,13.70
2023-05-17T09:46:20.862Z,11.10
2023-05-17T09:48:53.183Z,11.00
2023-05-17T09:51:20.006Z,13.30
2023-05-17T09:53:46.661Z,11.20
2023-05-17T09:56:13.371Z,13.40
2023-05-17T09:58:40.400Z,12.90
2023-05-17T10:01:08.638Z,13.50
2023-05-17T10:03:39.315Z,11.40
2023-05-17T10:06:07.368Z,11.50
2023-05-17T10:08:34.413Z,11.50
2023-05-17T10:11:06.465Z,11.50
2023-05-17T10:13:37.622Z,11.60
2023-05-17T10:16:04.491Z,11.60
2023-05-17T10:18:32.271Z,11.40
2023-05-17T10:20:59.440Z,12.60
2023-05-17T10:24:04.636Z,11.20
2023-05-17T10:26:31.595Z,8.60
2023-05-17T10:29:03.285Z,13.60
2023-05-17T10:31:30.889Z,14.80
2023-05-17T10:33:58.461Z,13.40
2023-05-17T10:36:25.723Z,11.50
2023-05-17T10:38:53.217Z,13.00
2023-05-17T10:41:22.090Z,14.00
2023-05-17T10:43:49.065Z,13.50
2023-05-17T10:46:16.588Z,12.30
2023-05-17T10:48:44.942Z,13.70
2023-05-17T10:51:12.359Z,14.40
2023-05-17T10:53:57.882Z,15.00
2023-05-17T10:56:24.931Z,12.40
2023-05-17T10:59:11.550Z,12.50
2023-05-17T11:01:55.066Z,14.60
2023-05-17T11:04:24.219Z,12.20
2023-05-17T11:07:11.278Z,12.10
2023-05-17T11:09:40.065Z,12.10
2023-05-17T11:12:07.972Z,12.40
2023-05-17T11:14:52.778Z,15.10
2023-05-17T11:17:22.697Z,11.80
2023-05-17T11:20:03.520Z,13.10
2023-05-17T11:22:35.282Z,11.30
2023-05-17T11:25:05.634Z,14.60
2023-05-17T11:27:36.226Z,11.50
2023-05-17T11:30:21.807Z,13.80
2023-05-17T11:32:53.098Z,11.80
2023-05-17T11:35:23.260Z,12.00
2023-05-17T11:37:52.004Z,12.90
2023-05-17T11:40:26.499Z,14.80
2023-05-17T11:43:12.146Z,12.20
2023-05-17T11:45:43.333Z,12.10
2023-05-17T11:48:11.862Z,11.60
2023-05-17T11:50:38.986Z,14.50
2023-05-17T11:53:06.957Z,13.90
2023-05-17T11:55:35.481Z,11.30
2023-05-17T11:58:02.957Z,13.90
2023-05-17T12:00:30.300Z,14.10
2023-05-17T12:02:57.853Z,11.30
2023-05-17T12:05:24.667Z,14.30
2023-05-17T12:07:54.262Z,11.40
2023-05-17T12:10:22.364Z,14.30
2023-05-17T12:12:49.350Z,11.70
2023-05-17T12:15:19.581Z,14.60
2023-05-17T12:17:49.296Z,11.80
2023-05-17T12:20:17.647Z,12.90
2023-05-17T12:22:54.464Z,14.70
2023-05-17T12:25:25.891Z,12.10
2023-05-17T12:27:52.805Z,14.60
2023-05-17T12:30:19.772Z,13.70
2023-05-17T12:32:47.392Z,11.90
2023-05-17T12:35:14.192Z,13.20
2023-05-17T12:37:41.342Z,11.80
2023-05-17T12:40:08.671Z,14.90
2023-05-17T12:42:35.566Z,11.90
2023-05-17T12:45:02.607Z,14.20
2023-05-17T12:47:32.387Z,13.50
2023-05-17T12:50:00.646Z,12.00
2023-05-17T12:52:33.145Z,13.60
2023-05-17T12:54:59.861Z,12.20
2023-05-17T12:57:26.545Z,12.40
2023-05-17T12:59:53.394Z,14.90
2023-05-17T13:02:20.533Z,14.50
2023-05-17T13:04:47.541Z,13.70
2023-05-17T13:07:21.129Z,13.80
2023-05-17T13:09:48.316Z,15.30
2023-05-17T13:12:22.475Z,12.60
2023-05-17T13:14:52.026Z,12.30
2023-05-17T13:17:21.793Z,13.50
2023-05-17T13:19:49.011Z,12.40
2023-05-17T13:22:16.124Z,12.50
2023-05-17T13:24:44.644Z,12.50
2023-05-17T13:27:12.057Z,13.70
2023-05-17T13:29:40.722Z,14.40
2023-05-17T13:32:08.462Z,14.00
2023-05-17T13:34:35.882Z,12.40
2023-05-17T13:37:02.660Z,14.00
2023-05-17T13:39:29.359Z,13.40
2023-05-17T13:41:56.094Z,15.80
2023-05-17T13:44:22.787Z,12.30
2023-05-17T13:46:49.507Z,12.30
2023-05-17T13:49:16.556Z,13.50
2023-05-17T13:51:43.321Z,12.40
2023-05-17T13:54:10.782Z,12.40
2023-05-17T13:56:37.575Z,13.80
2023-05-17T13:59:04.333Z,14.50
2023-05-17T14:01:31.028Z,14.50
2023-05-17T14:03:58.010Z,12.10
2023-05-17T14:06:24.941Z,12.10
2023-05-17T14:08:53.961Z,13.60
2023-05-17T14:11:21.219Z,15.00
2023-05-17T14:13:47.923Z,12.80
2023-05-17T14:16:14.587Z,12.90
2023-05-17T14:18:41.437Z,14.00
2023-05-17T14:21:08.369Z,14.40
2023-05-17T14:23:35.681Z,11.90
2023-05-17T14:26:05.202Z,13.40
2023-05-17T14:28:31.997Z,14.90
2023-05-17T14:30:58.999Z,11.80
2023-05-17T14:33:27.113Z,13.70
2023-05-17T14:35:54.012Z,12.80
2023-05-17T14:38:22.585Z,14.30
2023-05-17T14:40:49.313Z,14.10
2023-05-17T14:43:16.767Z,13.10
2023-05-17T14:45:43.634Z,12.60
2023-05-17T14:48:10.612Z,11.80
2023-05-17T14:50:37.372Z,11.90
2023-05-17T14:53:04.201Z,13.90
2023-05-17T14:55:31.327Z,11.90
2023-05-17T14:57:58.251Z,12.60
2023-05-17T15:00:27.084Z,14.80
2023-05-17T15:02:54.140Z,11.90
2023-05-17T15:05:20.970Z,12.90
2023-05-17T15:07:47.829Z,13.30
2023-05-17T15:10:16.253Z,11.50
2023-05-17T15:12:42.943Z,13.70
2023-05-17T15:15:10.310Z,11.50
2023-05-17T15:17:37.363Z,11.40
2023-05-17T15:20:04.953Z,11.40
2023-05-17T15:22:31.813Z,11.40
2023-05-17T15:24:58.844Z,13.20
2023-05-17T15:27:26.147Z,11.50
2023-05-17T15:29:52.808Z,11.50
2023-05-17T15:32:19.683Z,11.50
2023-05-17T15:34:46.818Z,11.50
2023-05-17T15:37:13.588Z,11.50
2023-05-17T15:39:40.366Z,14.60
2023-05-17T15:42:07.194Z,14.30
2023-05-17T15:44:33.900Z,12.40
2023-05-17T15:47:03.368Z,13.90
2023-05-17T15:49:30.373Z,12.80
2023-05-17T15:51:57.349Z,11.20
2023-05-17T15:54:24.081Z,11.20
2023-05-17T15:56:51.156Z,13.40
2023-05-17T15:59:17.928Z,11.10
2023-05-17T16:01:46.377Z,11.10
2023-05-17T16:04:13.576Z,11.60
2023-05-17T16:06:41.479Z,14.40
2023-05-17T16:09:08.579Z,11.10
2023-05-17T16:11:35.379Z,13.40
2023-05-17T16:14:02.239Z,13.20
2023-05-17T16:16:28.924Z,12.80
2023-05-17T16:18:55.965Z,11.00
2023-05-17T16:21:22.712Z,11.10
2023-05-17T16:23:49.543Z,12.90
2023-05-17T16:26:16.282Z,13.40
2023-05-17T16:28:42.938Z,11.20
2023-05-17T16:31:10.130Z,11.30
2023-05-17T16:34:19.924Z,11.30
2023-05-17T16:36:48.345Z,11.40
2023-05-17T16:39:15.079Z,13.30
2023-05-17T16:41:41.946Z,12.90
2023-05-17T16:44:08.677Z,14.30
2023-05-17T16:46:37.130Z,14.30
2023-05-17T16:49:04.195Z,11.80
2023-05-17T16:51:31.382Z,12.50
2023-05-17T16:53:58.058Z,13.20
2023-05-17T16:56:24.885Z,11.80
2023-05-17T16:58:52.591Z,11.80
2023-05-17T17:01:19.342Z,12.70
2023-05-17T17:03:46.208Z,12.70
2023-05-17T17:06:13.335Z,13.10
2023-05-17T17:08:40.348Z,11.10
2023-05-17T17:11:07.033Z,11.10
2023-05-17T17:13:34.186Z,13.40
2023-05-17T17:16:01.468Z,11.30
2023-05-17T17:18:29.364Z,13.70
2023-05-17T17:20:57.408Z,11.20
2023-05-17T17:23:24.171Z,13.90
2023-05-17T17:25:51.135Z,11.40
2023-05-17T17:28:17.868Z,11.40
2023-05-17T17:30:44.644Z,12.70
2023-05-17T17:33:11.742Z,12.30
2023-05-17T17:35:38.917Z,11.50
2023-05-17T17:38:06.118Z,11.60
2023-05-17T17:40:36.010Z,11.60
2023-05-17T17:43:02.793Z,12.60
2023-05-17T17:45:29.941Z,11.60
2023-05-17T17:47:56.688Z,11.60
2023-05-17T17:50:23.770Z,13.00
2023-05-17T17:52:50.536Z,11.60
2023-05-17T17:55:17.411Z,14.40
2023-05-17T17:57:44.365Z,14.60
2023-05-17T18:00:12.105Z,14.30
2023-05-17T18:02:39.688Z,11.40
2023-05-17T18:05:06.809Z,11.40
2023-05-17T18:07:33.670Z,11.30
2023-05-17T18:10:01.887Z,13.30
2023-05-17T18:12:28.796Z,13.70
2023-05-17T18:14:55.682Z,11.20
2023-05-17T18:17:22.562Z,11.20
2023-05-17T18:19:49.270Z,13.60
2023-05-17T18:22:19.090Z,11.00
2023-05-17T18:24:46.050Z,11.10
2023-05-17T18:27:14.335Z,10.90
2023-05-17T18:29:41.558Z,12.90
2023-05-17T18:32:08.939Z,10.80
2023-05-17T18:34:35.988Z,10.70
2023-05-17T18:37:02.804Z,10.70
2023-05-17T18:39:29.541Z,10.60
2023-05-17T18:41:56.330Z,10.60
2023-05-17T18:44:22.980Z,11.50
2023-05-17T18:46:50.076Z,10.50
2023-05-17T18:49:16.961Z,10.80
2023-05-17T18:51:43.772Z,10.30
2023-05-17T18:54:10.424Z,10.20
2023-05-17T18:56:37.298Z,10.20
2023-05-17T18:59:03.934Z,10.20
2023-05-17T19:01:30.767Z,10.00
2023-05-17T19:03:57.856Z,9.90
2023-05-17T19:06:25.463Z,9.80
2023-05-17T19:08:52.233Z,9.80
2023-05-17T19:11:19.011Z,10.60
2023-05-17T19:13:45.689Z,9.60
2023-05-17T19:16:12.541Z,9.60
2023-05-17T19:18:39.257Z,9.50
2023-05-17T19:21:05.958Z,11.30
2023-05-17T19:23:32.846Z,9.30
2023-05-17T19:25:59.559Z,9.10
2023-05-17T19:28:26.204Z,9.20
2023-05-17T19:30:53.007Z,10.60
2023-05-17T19:33:19.757Z,8.70
2023-05-17T19:35:47.832Z,9.60
2023-05-17T19:38:14.632Z,9.80
2023-05-17T19:40:41.484Z,8.40
2023-05-17T19:43:08.219Z,10.70
2023-05-17T19:45:35.134Z,8.00
2023-05-17T19:48:02.716Z,7.90
2023-05-17T19:50:29.804Z,7.90
2023-05-17T19:52:56.861Z,7.80
2023-05-17T19:55:24.835Z,7.80
2023-05-17T19:57:54.033Z,7.70
2023-05-17T20:00:21.176Z,7.70
2023-05-17T20:02:48.085Z,7.60
2023-05-17T20:05:16.970Z,7.60
2023-05-17T20:07:43.780Z,7.60
2023-05-17T20:10:10.978Z,7.50
2023-05-17T20:12:38.156Z,7.40
2023-05-17T20:15:06.557Z,7.30
2023-05-17T20:17:33.582Z,7.20
2023-05-17T20:20:01.637Z,7.10
2023-05-17T20:22:28.443Z,6.90
2023-05-17T20:24:57.171Z,6.80
2023-05-17T20:27:25.909Z,6.70
2023-05-17T20:29:52.749Z,6.60
2023-05-17T20:32:19.638Z,6.50
2023-05-17T20:34:46.773Z,6.50
2023-05-17T20:37:13.610Z,6.40
2023-05-17T20:39:40.674Z,6.40
2023-05-17T20:42:07.819Z,6.40
2023-05-17T20:44:34.632Z,6.30
2023-05-17T20:47:01.906Z,6.30
2023-05-17T20:49:28.724Z,6.40
2023-05-17T20:52:03.252Z,6.30
2023-05-17T20:54:30.720Z,6.30
2023-05-17T20:56:57.907Z,6.30
2023-05-17T20:59:25.995Z,6.30
2023-05-17T21:01:54.095Z,6.20
2023-05-17T21:04:20.853Z,6.20
2023-05-17T21:06:48.686Z,8.20
2023-05-17T21:09:15.533Z,6.10
2023-05-17T21:11:42.904Z,8.70
2023-05-17T21:14:09.607Z,6.00
2023-05-17T21:16:36.338Z,6.00
2023-05-17T21:19:03.301Z,5.90
2023-05-17T21:21:30.202Z,5.80
2023-05-17T21:23:57.035Z,5.70
2023-05-17T21:26:23.810Z,5.60
2023-05-17T21:28:50.764Z,5.50
2023-05-17T21:31:17.568Z,5.40
2023-05-17T21:33:44.359Z,5.30
2023-05-17T21:36:11.301Z,5.20
2023-05-17T21:38:37.960Z,5.10
2023-05-17T21:41:04.825Z,8.30
2023-05-17T21:43:31.622Z,4.90
2023-05-17T21:45:58.442Z,4.80
2023-05-17T21:48:25.507Z,6.00
2023-05-17T21:50:52.233Z,4.80
2023-05-17T21:53:19.024Z,4.80
2023-05-17T21:56:01.514Z,4.80
2023-05-17T21:58:30.002Z,4.70
2023-05-17T22:00:57.208Z,4.80
2023-05-17T22:03:24.144Z,4.70
2023-05-17T22:05:52.453Z,4.70
2023-05-17T22:08:19.284Z,4.70
2023-05-17T22:10:46.900Z,4.70
2023-05-17T22:13:16.117Z,4.70
2023-05-17T22:15:42.971Z,4.60
2023-05-17T22:18:12.677Z,4.50
2023-05-17T22:20:39.519Z,4.50
2023-05-17T22:23:06.279Z,4.40
2023-05-17T22:25:32.995Z,4.30
2023-05-17T22:27:59.887Z,4.30
2023-05-17T22:30:26.726Z,4.30
2023-05-17T22:32:57.216Z,4.20
2023-05-17T22:35:24.536Z,4.20
2023-05-17T22:37:53.350Z,4.20
2023-05-17T22:40:20.472Z,4.20
2023-05-17T22:42:47.228Z,4.30
2023-05-17T22:45:14.517Z,4.30
2023-05-17T22:47:42.787Z,4.30
2023-05-17T22:50:11.014Z,4.20
2023-05-17T22:52:40.881Z,4.20
2023-05-17T22:55:08.496Z,4.20
2023-05-17T22:57:35.303Z,4.10
2023-05-17T23:00:02.404Z,4.10
2023-05-17T23:02:29.177Z,4.00
2023-05-17T23:04:55.914Z,4.00
2023-05-17T23:07:23.362Z,3.90
2023-05-17T23:09:50.103Z,3.90
2023-05-17T23:12:17.366Z,3.90
2023-05-17T23:14:44.366Z,3.80
2023-05-17T23:17:11.090Z,4.10
2023-05-17T23:19:38.077Z,3.90
2023-05-17T23:22:06.416Z,3.90
2023-05-17T23:24:39.085Z,3.80
2023-05-17T23:27:10.050Z,3.90
2023-05-17T23:29:37.049Z,4.10
2023-05-17T23:32:03.921Z,3.90
2023-05-17T23:34:30.963Z,3.90
2023-05-17T23:36:57.717Z,3.90
2023-05-17T23:39:24.366Z,3.90
2023-05-17T23:41:52.101Z,3.90
2023-05-17T23:44:18.820Z,3.90
2023-05-17T23:46:45.838Z,3.80
2023-05-17T23:49:12.664Z,3.80
2023-05-17T23:51:39.378Z,3.70
2023-05-17T23:54:06.481Z,3.70
2023-05-17T23:56:33.332Z,3.70
2023-05-17T23:59:00.075Z,3.60
